createdAt,value
2023-02-03T00:02:23.011Z,19.20
2023-02-03T00:04:50.734Z,21.10
2023-02-03T00:07:18.251Z,18.80
2023-02-03T00:09:46.451Z,18.30
2023-02-03T00:12:14.403Z,19.60
2023-02-03T00:14:45.607Z,19.80
2023-02-03T00:17:14.905Z,18.80
2023-02-03T00:19:42.828Z,21.60
2023-02-03T00:22:10.369Z,18.80
2023-02-03T00:24:38.394Z,19.20
2023-02-03T00:27:06.779Z,18.60
2023-02-03T00:29:34.513Z,19.30
2023-02-03T00:32:02.185Z,19.70
2023-02-03T00:34:30.506Z,19.00
2023-02-03T00:36:58.195Z,17.00
2023-02-03T00:39:45.500Z,16.30
2023-02-03T00:42:13.185Z,17.70
2023-02-03T00:44:40.681Z,17.70
2023-02-03T00:47:08.453Z,17.50
2023-02-03T00:49:35.828Z,18.50
2023-02-03T00:52:03.352Z,16.70
2023-02-03T00:54:32.708Z,15.90
2023-02-03T00:59:29.886Z,18.30
2023-02-03T01:01:57.341Z,18.50
2023-02-03T01:04:24.941Z,16.70
2023-02-03T01:06:55.926Z,16.80
2023-02-03T01:09:24.163Z,15.90
2023-02-03T01:11:51.496Z,18.40
2023-02-03T01:14:19.004Z,17.90
2023-02-03T01:16:46.460Z,17.90
2023-02-03T01:19:14.405Z,17.60
2023-02-03T01:21:41.926Z,16.60
2023-02-03T01:24:09.503Z,16.60
2023-02-03T01:26:40.466Z,17.90
2023-02-03T01:29:07.995Z,19.50
2023-02-03T01:31:39.594Z,19.00
2023-02-03T01:34:12.179Z,17.80
2023-02-03T01:36:39.748Z,18.60
2023-02-03T01:39:07.502Z,18.70
2023-02-03T01:41:37.519Z,20.30
2023-02-03T01:44:43.142Z,20.90
2023-02-03T01:47:17.296Z,22.60
2023-02-03T01:49:49.463Z,20.30
2023-02-03T01:52:16.787Z,19.90
2023-02-03T02:45:31.101Z,17.90
2023-02-03T02:48:11.417Z,21.20
2023-02-03T02:50:40.923Z,25.00
2023-02-03T02:53:08.274Z,25.10
2023-02-03T02:55:38.895Z,26.00
2023-02-03T02:58:10.496Z,28.10
2023-02-03T03:00:38.657Z,25.70
2023-02-03T03:03:17.371Z,23.20
2023-02-03T03:05:56.039Z,22.40
2023-02-03T03:08:41.231Z,19.70
2023-02-03T03:11:09.495Z,18.70
2023-02-03T03:13:40.581Z,19.50
2023-02-03T03:16:09.097Z,18.60
2023-02-03T03:18:43.025Z,19.50
2023-02-03T03:21:16.214Z,17.90
2023-02-03T03:23:44.875Z,18.30
2023-02-03T03:26:14.639Z,18.40
2023-02-03T03:29:14.648Z,19.60
2023-02-03T03:31:42.249Z,19.70
2023-02-03T03:34:09.901Z,18.20
2023-02-03T03:36:44.656Z,18.90
2023-02-03T03:39:27.678Z,16.40
2023-02-03T03:42:04.747Z,18.00
2023-02-03T03:44:43.814Z,19.10
2023-02-03T03:47:28.836Z,18.50
2023-02-03T03:49:56.572Z,18.40
2023-02-03T03:52:26.460Z,16.90
2023-02-03T03:54:53.790Z,19.00
2023-02-03T03:57:58.657Z,18.10
2023-02-03T04:00:27.900Z,18.60
2023-02-03T04:02:55.563Z,18.20
2023-02-03T04:05:23.515Z,17.60
2023-02-03T04:07:50.976Z,16.80
2023-02-03T04:10:31.722Z,17.70
2023-02-03T04:12:59.319Z,19.40
2023-02-03T04:15:27.695Z,18.90
2023-02-03T04:17:56.793Z,20.00
2023-02-03T04:20:24.553Z,19.80
2023-02-03T04:22:52.381Z,17.70
2023-02-03T04:25:19.938Z,19.10
2023-02-03T04:27:47.440Z,19.80
2023-02-03T04:30:14.806Z,18.00
2023-02-03T04:32:42.129Z,17.70
2023-02-03T04:35:09.870Z,18.60
2023-02-03T04:37:38.142Z,18.50
2023-02-03T04:40:06.326Z,20.30
2023-02-03T04:42:35.974Z,23.30
2023-02-03T04:45:03.714Z,21.80
2023-02-03T04:47:31.380Z,22.20
2023-02-03T04:49:58.709Z,20.90
2023-02-03T04:52:26.099Z,19.70
2023-02-03T04:54:53.796Z,21.50
2023-02-03T04:57:21.148Z,22.10
2023-02-03T04:59:48.458Z,19.70
2023-02-03T05:02:15.931Z,18.00
2023-02-03T05:04:43.220Z,19.10
2023-02-03T05:07:11.213Z,19.10
2023-02-03T05:09:38.943Z,19.40
2023-02-03T05:12:07.462Z,18.50
2023-02-03T05:14:36.431Z,19.90
2023-02-03T05:17:03.714Z,18.90
2023-02-03T05:19:31.646Z,18.40
2023-02-03T05:21:59.012Z,19.30
2023-02-03T05:24:26.362Z,18.30
2023-02-03T05:26:53.880Z,18.20
2023-02-03T05:29:21.495Z,20.00
2023-02-03T05:31:49.200Z,18.70
2023-02-03T05:34:17.337Z,16.40
2023-02-03T05:36:44.830Z,18.70
2023-02-03T05:39:12.986Z,18.70
2023-02-03T05:41:52.979Z,17.90
2023-02-03T05:44:21.621Z,19.50
2023-02-03T05:46:49.067Z,18.10
2023-02-03T05:49:16.391Z,17.20
2023-02-03T05:51:43.806Z,17.70
2023-02-03T05:54:11.254Z,19.10
2023-02-03T05:56:38.663Z,21.80
2023-02-03T05:59:06.148Z,18.00
2023-02-03T06:01:34.226Z,17.50
2023-02-03T06:04:02.318Z,16.20
2023-02-03T06:06:33.615Z,16.50
2023-02-03T06:11:31.473Z,16.50
2023-02-03T06:13:59.798Z,15.00
2023-02-03T06:16:27.997Z,15.00
2023-02-03T06:18:59.133Z,14.30
2023-02-03T06:21:26.879Z,14.70
2023-02-03T06:23:55.668Z,13.80
2023-02-03T06:26:23.587Z,14.30
2023-02-03T06:28:50.997Z,16.40
2023-02-03T06:31:19.123Z,13.10
2023-02-03T06:33:46.569Z,13.80
2023-02-03T06:36:13.951Z,13.40
2023-02-03T06:38:41.346Z,13.30
2023-02-03T06:41:08.610Z,13.40
2023-02-03T06:43:36.684Z,13.10
2023-02-03T06:46:04.230Z,13.60
2023-02-03T06:48:31.600Z,12.90
2023-02-03T06:50:59.081Z,13.70
2023-02-03T06:53:26.432Z,12.00
2023-02-03T06:55:54.169Z,13.60
2023-02-03T06:58:22.021Z,12.40
2023-02-03T07:00:51.084Z,11.80
2023-02-03T07:03:18.794Z,11.50
2023-02-03T07:05:46.477Z,10.90
2023-02-03T07:08:13.993Z,10.00
2023-02-03T07:10:41.549Z,10.40
2023-02-03T07:13:08.953Z,10.00
2023-02-03T07:15:37.363Z,10.70
2023-02-03T07:18:05.544Z,10.20
2023-02-03T07:20:32.939Z,10.70
2023-02-03T07:23:00.615Z,9.20
2023-02-03T07:25:27.949Z,8.90
2023-02-03T07:27:55.814Z,9.20
2023-02-03T07:30:23.170Z,9.00
2023-02-03T07:32:51.293Z,8.70
2023-02-03T07:35:18.771Z,8.40
2023-02-03T07:37:46.300Z,7.80
2023-02-03T07:40:14.522Z,7.00
2023-02-03T07:42:43.205Z,7.00
2023-02-03T07:45:11.002Z,7.10
2023-02-03T07:47:38.531Z,7.00
2023-02-03T07:50:06.135Z,6.40
2023-02-03T07:52:34.355Z,6.10
2023-02-03T07:55:02.016Z,5.50
2023-02-03T07:57:30.015Z,4.60
2023-02-03T07:59:57.816Z,4.80
2023-02-03T08:02:25.107Z,4.70
2023-02-03T08:04:52.500Z,4.20
2023-02-03T08:07:20.116Z,4.10
2023-02-03T08:09:47.580Z,3.70
2023-02-03T08:12:14.906Z,4.00
2023-02-03T08:14:42.206Z,3.30
2023-02-03T08:17:09.479Z,3.80
2023-02-03T08:19:36.890Z,3.80
2023-02-03T08:22:04.200Z,3.20
2023-02-03T08:24:31.574Z,3.30
2023-02-03T08:27:00.622Z,3.40
2023-02-03T08:29:28.024Z,3.20
2023-02-03T08:31:55.925Z,3.50
2023-02-03T08:34:23.671Z,3.50
2023-02-03T08:36:51.330Z,3.30
2023-02-03T08:39:19.379Z,3.50
2023-02-03T08:41:47.447Z,3.70
2023-02-03T08:44:19.659Z,3.90
2023-02-03T08:46:51.898Z,4.20
2023-02-03T08:49:20.261Z,12.20
2023-02-03T08:51:48.280Z,10.40
2023-02-03T08:54:15.914Z,18.40
2023-02-03T08:56:43.615Z,6.90
2023-02-03T08:59:11.974Z,31.40
2023-02-03T09:01:48.246Z,8.00
2023-02-03T09:04:24.252Z,6.40
2023-02-03T09:06:54.337Z,20.00
2023-02-03T09:09:22.696Z,7.20
2023-02-03T09:11:50.647Z,5.80
2023-02-03T09:14:18.229Z,5.00
2023-02-03T09:16:46.119Z,5.00
2023-02-03T09:19:13.822Z,11.40
2023-02-03T09:21:47.789Z,6.80
2023-02-03T09:24:17.398Z,5.40
2023-02-03T09:26:45.351Z,7.60
2023-02-03T09:29:13.118Z,10.30
2023-02-03T09:31:41.709Z,6.20
2023-02-03T09:34:09.964Z,6.30
2023-02-03T09:36:37.936Z,5.40
2023-02-03T09:39:05.607Z,5.10
2023-02-03T09:42:11.428Z,5.80
2023-02-03T09:45:11.077Z,5.10
2023-02-03T09:47:40.906Z,5.90
2023-02-03T09:50:30.090Z,5.50
2023-02-03T09:52:58.734Z,6.40
2023-02-03T09:55:40.909Z,5.20
2023-02-03T09:58:14.420Z,7.00
2023-02-03T11:53:36.322Z,5.70
2023-02-03T11:56:45.115Z,7.20
2023-02-03T11:59:40.638Z,7.40
2023-02-03T12:02:40.524Z,7.00
2023-02-03T12:05:23.608Z,6.30
2023-02-03T12:08:03.078Z,5.50
2023-02-03T12:10:49.004Z,5.30
2023-02-03T12:13:24.493Z,5.00
2023-02-03T12:16:25.829Z,5.00
2023-02-03T12:19:25.418Z,5.40
2023-02-03T12:22:02.163Z,5.20
2023-02-03T12:24:42.845Z,7.00
2023-02-03T12:27:27.052Z,6.00
2023-02-03T12:29:58.020Z,5.40
2023-02-03T12:32:36.608Z,5.20
2023-02-03T12:35:22.671Z,6.00
2023-02-03T12:37:54.208Z,5.00
2023-02-03T12:40:53.284Z,4.80
2023-02-03T12:43:43.294Z,5.20
2023-02-03T12:46:13.785Z,4.80
2023-02-03T12:48:46.384Z,4.90
2023-02-03T12:51:41.370Z,5.10
2023-02-03T12:54:29.377Z,5.20
2023-02-03T12:57:00.869Z,4.60
2023-02-03T12:59:29.538Z,5.00
2023-02-03T13:02:13.610Z,4.40
2023-02-03T13:04:43.869Z,4.60
2023-02-03T13:07:36.225Z,4.30
2023-02-03T13:10:09.247Z,4.20
2023-02-03T13:12:45.926Z,4.70
2023-02-03T13:15:34.240Z,4.80
2023-02-03T13:18:27.994Z,4.80
2023-02-03T13:20:55.835Z,5.20
2023-02-03T13:23:23.909Z,5.30
2023-02-03T13:25:58.143Z,4.90
2023-02-03T13:28:54.297Z,5.10
2023-02-03T13:31:32.040Z,4.90
2023-02-03T13:34:12.094Z,4.30
2023-02-03T13:36:58.492Z,5.90
2023-02-03T13:39:34.349Z,4.60
2023-02-03T13:42:25.326Z,5.00
2023-02-03T13:45:06.303Z,4.60
2023-02-03T13:47:34.508Z,4.80
2023-02-03T13:50:05.893Z,4.80
2023-02-03T13:52:42.020Z,4.60
2023-02-03T13:55:42.230Z,4.50
2023-02-03T13:58:25.145Z,4.60
2023-02-03T14:00:53.101Z,4.70
2023-02-03T14:03:26.693Z,4.40
2023-02-03T14:05:57.640Z,4.70
2023-02-03T14:08:25.420Z,5.10
2023-02-03T14:11:31.219Z,5.20
2023-02-03T14:14:05.514Z,5.50
2023-02-03T14:16:35.494Z,5.50
2023-02-03T14:19:04.053Z,5.30
2023-02-03T14:21:52.432Z,5.30
2023-02-03T14:24:20.698Z,5.40
2023-02-03T14:26:50.399Z,5.40
2023-02-03T14:29:26.061Z,5.50
2023-02-03T14:32:00.425Z,5.20
2023-02-03T14:34:38.023Z,5.40
2023-02-03T14:37:14.534Z,5.80
2023-02-03T14:40:16.039Z,5.20
2023-02-03T14:43:16.095Z,5.60
2023-02-03T14:46:08.254Z,5.40
2023-02-03T14:49:00.762Z,5.50
2023-02-03T14:51:47.389Z,5.00
2023-02-03T14:54:43.112Z,5.00
2023-02-03T14:57:25.057Z,5.10
2023-02-03T15:00:03.253Z,4.80
2023-02-03T15:02:31.332Z,4.40
2023-02-03T15:05:14.353Z,4.80
2023-02-03T15:07:46.452Z,4.60
2023-02-03T15:10:20.846Z,4.70
2023-02-03T15:12:49.535Z,4.40
2023-02-03T15:15:29.040Z,4.60
2023-02-03T15:17:59.215Z,4.20
2023-02-03T15:20:32.868Z,4.10
2023-02-03T15:23:01.853Z,13.10
2023-02-03T15:25:30.849Z,5.50
2023-02-03T15:28:19.650Z,4.50
2023-02-03T15:30:52.829Z,4.80
2023-02-03T15:33:22.478Z,4.70
2023-02-03T15:35:55.654Z,4.60
2023-02-03T15:38:29.296Z,5.00
2023-02-03T15:40:59.418Z,5.60
2023-02-03T15:43:27.233Z,5.70
2023-02-03T15:46:08.521Z,4.60
2023-02-03T15:48:46.901Z,4.10
2023-02-03T15:51:50.207Z,4.80
2023-02-03T15:54:45.948Z,4.10
2023-02-03T15:57:20.503Z,4.30
2023-02-03T16:00:00.045Z,5.40
2023-02-03T16:02:36.035Z,5.30
2023-02-03T16:05:06.054Z,6.40
2023-02-03T16:07:34.017Z,5.60
2023-02-03T16:10:01.957Z,4.50
2023-02-03T16:12:31.527Z,6.00
2023-02-03T16:15:00.390Z,7.50
2023-02-03T16:17:29.195Z,6.90
2023-02-03T16:20:12.181Z,5.50
2023-02-03T16:22:47.576Z,6.70
2023-02-03T16:25:23.648Z,8.30
2023-02-03T16:28:36.544Z,6.40
2023-02-03T16:31:33.153Z,8.00
2023-02-03T16:34:20.547Z,7.40
2023-02-03T16:37:07.267Z,5.20
2023-02-03T16:39:54.178Z,5.50
2023-02-03T16:42:40.225Z,5.70
2023-02-03T16:45:36.063Z,5.50
2023-02-03T16:48:23.195Z,5.60
2023-02-03T16:50:53.603Z,7.00
2023-02-03T16:53:28.117Z,5.10
2023-02-03T16:55:56.870Z,6.50
2023-02-03T16:58:25.101Z,6.10
2023-02-03T17:00:53.163Z,7.80
2023-02-03T17:03:25.477Z,6.20
2023-02-03T17:05:53.114Z,6.50
2023-02-03T17:08:22.721Z,5.80
2023-02-03T17:10:50.839Z,7.10
2023-02-03T17:13:19.612Z,9.50
2023-02-03T17:15:48.639Z,7.10
2023-02-03T17:18:16.203Z,5.90
2023-02-03T17:20:44.114Z,6.00
2023-02-03T17:23:11.729Z,6.40
2023-02-03T17:25:39.458Z,6.70
2023-02-03T17:28:08.092Z,6.40
2023-02-03T17:30:36.051Z,7.00
2023-02-03T17:33:11.782Z,6.20
2023-02-03T17:35:43.299Z,5.70
2023-02-03T17:38:12.332Z,6.90
2023-02-03T17:54:37.007Z,7.20
2023-02-03T17:57:04.736Z,6.10
2023-02-03T19:27:45.701Z,6.60
2023-02-03T19:30:13.851Z,5.80
2023-02-03T19:32:42.735Z,6.90
2023-02-03T19:35:12.448Z,7.00
2023-02-03T19:37:41.674Z,7.60
2023-02-03T19:40:10.253Z,7.30
2023-02-03T19:42:38.193Z,7.30
2023-02-03T19:45:06.711Z,6.80
2023-02-03T19:47:35.014Z,8.60
2023-02-03T19:50:03.145Z,7.50
2023-02-03T19:52:31.057Z,6.90
2023-02-03T19:54:58.978Z,6.60
2023-02-03T19:57:26.601Z,6.20
2023-02-03T19:59:54.398Z,6.00
2023-02-03T20:02:22.204Z,6.10
2023-02-03T20:04:50.352Z,5.20
2023-02-03T20:07:22.930Z,5.30
2023-02-03T20:09:52.217Z,5.20
2023-02-03T20:12:19.818Z,5.30
2023-02-03T20:14:47.777Z,5.40
2023-02-03T20:17:15.556Z,5.80
2023-02-03T20:19:43.216Z,5.50
2023-02-03T20:22:10.716Z,4.60
2023-02-03T20:24:38.516Z,5.10
2023-02-03T20:27:06.419Z,4.90
2023-02-03T20:29:34.904Z,4.80
2023-02-03T20:32:04.400Z,5.50
2023-02-03T20:34:33.095Z,5.60
2023-02-03T20:37:01.072Z,5.00
2023-02-03T20:39:29.700Z,5.10
2023-02-03T20:41:57.415Z,5.10
2023-02-03T20:44:24.903Z,4.90
2023-02-03T20:46:53.011Z,4.90
2023-02-03T20:49:21.303Z,4.60
2023-02-03T20:51:48.727Z,5.10
2023-02-03T20:54:18.074Z,4.90
2023-02-03T20:56:45.415Z,5.00
2023-02-03T20:59:13.819Z,4.40
2023-02-03T21:01:41.699Z,4.90
2023-02-03T21:04:31.926Z,5.00
2023-02-03T21:06:59.359Z,4.70
2023-02-03T21:09:27.178Z,5.10
2023-02-03T21:11:54.715Z,4.60
2023-02-03T21:14:26.961Z,5.20
2023-02-03T21:16:54.623Z,4.40
2023-02-03T21:19:31.197Z,4.90
2023-02-03T21:22:12.900Z,4.60
2023-02-03T21:24:47.516Z,5.60
2023-02-03T21:27:30.787Z,4.60
2023-02-03T21:29:59.484Z,5.00
2023-02-03T21:32:40.281Z,4.80
2023-02-03T21:35:26.143Z,4.50
2023-02-03T21:37:56.819Z,4.10
2023-02-03T21:40:29.582Z,4.40
2023-02-03T21:42:58.433Z,4.80
2023-02-03T21:45:30.610Z,4.90
2023-02-03T21:47:58.346Z,4.80
2023-02-03T21:50:33.964Z,4.10
2023-02-03T21:53:07.198Z,4.60
2023-02-03T21:55:35.410Z,4.60
2023-02-03T21:58:30.035Z,4.30
2023-02-03T22:00:58.976Z,4.30
2023-02-03T22:03:35.058Z,4.40
2023-02-03T22:06:08.124Z,4.10
2023-02-03T22:08:43.106Z,4.20
2023-02-03T22:11:10.874Z,4.10
2023-02-03T22:13:40.347Z,4.10
2023-02-03T22:16:07.978Z,3.80
2023-02-03T22:18:35.354Z,4.40
2023-02-03T22:21:03.039Z,4.40
2023-02-03T22:23:30.689Z,4.30
2023-02-03T22:25:58.082Z,3.90
2023-02-03T22:28:25.739Z,4.50
2023-02-03T22:30:53.948Z,4.20
2023-02-03T22:33:21.461Z,4.50
2023-02-03T22:35:48.957Z,4.00
2023-02-03T22:38:16.660Z,4.10
2023-02-03T22:40:44.521Z,4.20
2023-02-03T22:43:12.367Z,4.10
2023-02-03T22:45:40.528Z,4.40
2023-02-03T22:48:07.941Z,3.70
2023-02-03T22:50:37.127Z,4.10
2023-02-03T22:53:05.702Z,4.30
2023-02-03T22:55:37.698Z,4.10
2023-02-03T22:58:05.604Z,4.00
2023-02-03T23:00:33.414Z,4.30
2023-02-03T23:03:00.953Z,4.40
2023-02-03T23:05:28.358Z,4.20
2023-02-03T23:07:56.489Z,4.70
2023-02-03T23:10:25.351Z,3.90
2023-02-03T23:12:54.159Z,4.70
2023-02-03T23:15:21.634Z,4.30
2023-02-03T23:17:49.402Z,4.00
2023-02-03T23:20:18.298Z,4.60
2023-02-03T23:22:46.655Z,4.30
2023-02-03T23:25:14.177Z,4.20
2023-02-03T23:27:41.654Z,4.60
2023-02-03T23:30:09.973Z,4.30
2023-02-03T23:32:37.871Z,4.00
2023-02-03T23:35:24.876Z,4.40
2023-02-03T23:37:52.389Z,4.00
2023-02-03T23:40:20.082Z,4.40
2023-02-03T23:42:47.595Z,3.90
2023-02-03T23:45:16.040Z,4.30
2023-02-03T23:47:44.482Z,4.40
2023-02-03T23:50:14.016Z,4.20
2023-02-03T23:52:41.925Z,4.70
2023-02-03T23:55:11.555Z,4.40
2023-02-03T23:57:42.243Z,4.20
